Time;durP1;ratioP1;P1;durP2;ratioP2;P2;SDS_P1;SDS_P2;PMS_P1;PMS_P2;Temp;Humidity;BMP_temperature;BMP_pressure;BME280_temperature;BME280_humidity;BME280_pressure;Samples;Min_cycle;Max_cycle;Signal;HPM_P1;HPM_P2
2023/01/31 00:01:34;;;;;;;15.60;5.90;;;;;;;-3.09;100.00;99798.13;108814;1260;73858;-81
2023/01/31 00:04:23;;;;;;;14.30;5.50;;;;;;;-3.08;100.00;99793.69;108904;1257;60705;-80
2023/01/31 00:07:11;;;;;;;13.40;5.60;;;;;;;-3.07;100.00;99786.00;108934;1257;60044;-81
2023/01/31 00:10:00;;;;;;;14.90;6.50;;;;;;;-3.06;100.00;99783.82;108883;1258;74474;-80
2023/01/31 00:12:49;;;;;;;15.70;6.10;;;;;;;-3.05;100.00;99780.08;108888;1256;68732;-81
2023/01/31 00:15:38;;;;;;;19.00;6.80;;;;;;;-3.05;100.00;99777.91;108915;1257;73636;-81
2023/01/31 00:18:27;;;;;;;18.10;6.50;;;;;;;-3.02;100.00;99773.55;108902;1257;59539;-81
2023/01/31 00:21:18;;;;;;;12.50;5.60;;;;;;;-3.00;100.00;99778.20;108956;1257;61220;-81
2023/01/31 00:24:07;;;;;;;15.90;6.10;;;;;;;-2.98;100.00;99772.35;108954;1257;73631;-80
2023/01/31 00:26:56;;;;;;;17.80;6.70;;;;;;;-2.96;100.00;99768.27;108871;1257;68300;-80
2023/01/31 00:29:46;;;;;;;12.20;6.10;;;;;;;-2.95;100.00;99770.30;108853;1257;73615;-81
2023/01/31 00:32:36;;;;;;;14.10;5.80;;;;;;;-2.94;100.00;99772.76;108905;1257;61725;-81
2023/01/31 00:35:25;;;;;;;12.70;5.20;;;;;;;-2.94;100.00;99777.23;108835;1257;59737;-81
2023/01/31 00:38:14;;;;;;;14.80;5.80;;;;;;;-2.90;100.00;99776.08;108948;1257;75528;-80
2023/01/31 00:41:04;;;;;;;14.80;5.70;;;;;;;-2.90;100.00;99777.07;108924;1257;68787;-81
2023/01/31 00:43:54;;;;;;;14.60;5.90;;;;;;;-2.88;100.00;99773.65;108876;1257;72409;-81
2023/01/31 00:46:43;;;;;;;12.60;5.40;;;;;;;-2.88;100.00;99768.14;108884;1257;60414;-81
2023/01/31 00:49:31;;;;;;;14.60;5.50;;;;;;;-2.91;100.00;99763.34;108926;1259;61199;-81
2023/01/31 00:52:20;;;;;;;16.10;5.70;;;;;;;-2.89;100.00;99765.23;108933;1257;73861;-81
2023/01/31 00:55:09;;;;;;;16.60;7.00;;;;;;;-2.86;100.00;99764.30;108938;1257;69284;-81
2023/01/31 00:57:58;;;;;;;15.70;5.90;;;;;;;-2.85;100.00;99764.02;108943;1261;73876;-81
2023/01/31 01:00:47;;;;;;;14.30;6.30;;;;;;;-2.86;100.00;99765.14;108858;1257;60508;-81
2023/01/31 01:03:36;;;;;;;16.20;6.80;;;;;;;-2.86;100.00;99758.02;108765;1257;59257;-80
2023/01/31 01:06:27;;;;;;;12.10;5.80;;;;;;;-2.85;100.00;99758.96;108865;1257;73866;-80
2023/01/31 01:09:17;;;;;;;15.30;5.70;;;;;;;-2.84;100.00;99760.61;108958;1258;69144;-81
2023/01/31 01:12:05;;;;;;;14.90;6.20;;;;;;;-2.85;100.00;99765.14;108896;1257;72285;-80
2023/01/31 01:14:56;;;;;;;15.70;7.30;;;;;;;-2.85;100.00;99764.96;108919;1257;59592;-80
2023/01/31 01:17:46;;;;;;;16.80;7.00;;;;;;;-2.85;100.00;99762.29;108939;1257;62645;-81
2023/01/31 01:20:35;;;;;;;15.50;5.60;;;;;;;-2.84;100.00;99757.76;108889;1257;74716;-80
2023/01/31 01:23:24;;;;;;;15.30;5.80;;;;;;;-2.81;100.00;99756.48;108959;1257;69487;-80
2023/01/31 01:26:14;;;;;;;13.30;5.60;;;;;;;-2.82;100.00;99752.42;108853;1257;72671;-80
2023/01/31 01:29:03;;;;;;;15.70;6.00;;;;;;;-2.82;100.00;99755.33;108922;1259;59355;-81
2023/01/31 01:31:52;;;;;;;13.90;6.20;;;;;;;-2.83;100.00;99751.83;108882;1257;60031;-81
2023/01/31 01:34:41;;;;;;;16.50;7.20;;;;;;;-2.84;100.00;99749.70;108913;1259;73654;-81
2023/01/31 01:37:30;;;;;;;17.20;6.80;;;;;;;-2.82;100.00;99752.54;108897;1257;69936;-80
2023/01/31 01:40:18;;;;;;;14.90;6.20;;;;;;;-2.81;100.00;99754.47;108896;1257;73848;-80
2023/01/31 01:43:10;;;;;;;15.20;5.80;;;;;;;-2.80;100.00;99753.48;108988;1255;60379;-80
2023/01/31 01:46:00;;;;;;;9.90;4.90;;;;;;;-2.80;100.00;99753.69;109137;1253;60050;-80
2023/01/31 01:48:50;;;;;;;14.20;6.20;;;;;;;-2.80;100.00;99754.48;109109;1254;73880;-80
2023/01/31 01:51:39;;;;;;;15.90;5.30;;;;;;;-2.80;100.00;99753.77;108996;1261;68750;-80
2023/01/31 01:54:33;;;;;;;17.30;6.40;;;;;;;-2.78;100.00;99753.27;109062;1254;73919;-80
2023/01/31 01:57:27;;;;;;;17.10;6.20;;;;;;;-2.78;100.00;99753.93;109169;1254;61292;-81
2023/01/31 02:00:22;;;;;;;13.60;5.50;;;;;;;-2.80;100.00;99752.20;109330;1254;60003;-81
2023/01/31 02:03:12;;;;;;;14.40;6.10;;;;;;;-2.80;100.00;99748.98;109208;1254;74310;-81
2023/01/31 02:06:03;;;;;;;14.60;5.60;;;;;;;-2.83;100.00;99746.85;109260;1253;69878;-81
2023/01/31 02:08:51;;;;;;;13.90;5.40;;;;;;;-2.82;100.00;99747.97;109103;1254;72530;-80
2023/01/31 02:11:40;;;;;;;14.50;5.90;;;;;;;-2.81;100.00;99744.88;109169;1254;60745;-81
2023/01/31 02:14:29;;;;;;;14.40;6.60;;;;;;;-2.83;100.00;99742.83;109200;1254;62184;-81
2023/01/31 02:17:18;;;;;;;14.20;6.50;;;;;;;-2.83;100.00;99738.39;109035;1253;74843;-80
2023/01/31 02:20:13;;;;;;;16.00;6.10;;;;;;;-2.85;100.00;99745.17;109302;1257;69986;-80
2023/01/31 02:23:04;;;;;;;16.50;6.90;;;;;;;-2.85;100.00;99749.16;109201;1255;72270;-81
2023/01/31 02:25:56;;;;;;;14.40;6.20;;;;;;;-2.85;100.00;99743.86;109197;1254;59601;-80
2023/01/31 02:29:12;;;;;;;15.40;6.70;;;;;;;-2.85;100.00;99745.02;109162;1253;61322;-80
2023/01/31 02:32:16;;;;;;;19.20;6.10;;;;;;;-2.85;100.00;99737.57;108996;1253;74834;-81
2023/01/31 02:35:08;;;;;;;20.10;5.90;;;;;;;-2.87;100.00;99743.16;109293;1253;69633;-80
2023/01/31 02:38:09;;;;;;;14.10;6.60;;;;;;;-2.88;100.00;99743.70;109147;1254;73506;-80
2023/01/31 02:41:11;;;;;;;14.00;6.50;;;;;;;-2.89;100.00;99746.10;109061;1254;60607;-80
2023/01/31 02:47:44;;;;;;;16.20;6.90;;;;;;;-2.87;100.00;99752.43;109044;1254;74558;-80
2023/01/31 02:50:43;;;;;;;16.40;6.50;;;;;;;-2.87;100.00;99756.58;109130;1255;67647;-80
2023/01/31 02:53:45;;;;;;;16.20;6.60;;;;;;;-2.86;100.00;99755.47;109113;1254;73733;-81
2023/01/31 02:56:35;;;;;;;14.90;6.20;;;;;;;-2.86;100.00;99758.55;109074;1254;60714;-81
2023/01/31 02:59:30;;;;;;;15.30;6.40;;;;;;;-2.86;100.00;99760.65;108985;1254;61372;-81
2023/01/31 03:02:19;;;;;;;16.90;7.00;;;;;;;-2.88;100.00;99763.33;109269;1254;75002;-81
2023/01/31 03:05:13;;;;;;;22.40;6.20;;;;;;;-2.89;100.00;99764.64;109287;1254;69918;-81
2023/01/31 03:08:04;;;;;;;17.20;5.90;;;;;;;-2.87;100.00;99761.23;109152;1254;73860;-81
2023/01/31 03:11:04;;;;;;;14.80;5.70;;;;;;;-2.88;100.00;99756.42;109054;1254;59605;-80
2023/01/31 03:14:06;;;;;;;15.20;6.00;;;;;;;-2.90;100.00;99763.00;109316;1254;61436;-80
2023/01/31 03:17:31;;;;;;;14.70;6.30;;;;;;;-2.91;100.00;99765.85;108993;1254;75243;-80
2023/01/31 03:20:35;;;;;;;15.40;6.10;;;;;;;-2.91;100.00;99767.23;109134;1254;68560;-81
2023/01/31 03:23:28;;;;;;;12.00;5.30;;;;;;;-2.92;100.00;99768.80;108998;1254;73712;-80
2023/01/31 03:26:19;;;;;;;;;;;;;;;-2.94;100.00;99767.28;109052;1253;59036;-81
2023/01/31 03:29:10;;;;;;;17.20;6.70;;;;;;;-2.95;100.00;99764.65;109095;1254;59829;-80
2023/01/31 03:32:24;;;;;;;15.20;6.30;;;;;;;-2.97;100.00;99761.66;108979;1254;75084;-81
2023/01/31 03:35:13;;;;;;;12.80;5.90;;;;;;;-2.98;100.00;99762.77;109110;1254;70179;-81
2023/01/31 03:38:10;;;;;;;21.30;7.30;;;;;;;-3.00;100.00;99766.60;109026;1254;73816;-81
2023/01/31 03:41:12;;;;;;;17.50;6.30;;;;;;;-3.03;100.00;99770.64;109023;1259;59308;-80
2023/01/31 03:44:05;;;;;;;12.70;6.00;;;;;;;-3.05;100.00;99773.71;109064;1254;59990;-80
2023/01/31 03:46:58;;;;;;;20.80;7.50;;;;;;;-3.03;100.00;99771.58;109051;1254;73847;-80
2023/01/31 03:49:47;;;;;;;18.00;7.20;;;;;;;-3.03;100.00;99767.09;109109;1254;68462;-81
2023/01/31 03:52:37;;;;;;;16.50;6.40;;;;;;;-3.04;100.00;99768.86;109049;1257;73679;-81
2023/01/31 03:55:30;;;;;;;19.90;7.00;;;;;;;-3.15;100.00;99771.56;109050;1254;60041;-80
2023/01/31 03:58:21;;;;;;;19.60;7.10;;;;;;;-3.13;100.00;99771.99;109100;1253;60377;-81
2023/01/31 04:01:10;;;;;;;18.00;7.20;;;;;;;-3.12;100.00;99767.63;109031;1254;73889;-81
2023/01/31 04:04:10;;;;;;;14.10;5.80;;;;;;;-3.13;100.00;99770.97;109011;1259;69761;-81
2023/01/31 04:07:00;;;;;;;16.50;6.70;;;;;;;-3.14;100.00;99771.30;108969;1254;73001;-81
2023/01/31 04:09:49;;;;;;;14.80;7.10;;;;;;;-3.14;100.00;99775.53;109216;1254;62140;-80
2023/01/31 04:12:38;;;;;;;13.70;5.50;;;;;;;-3.13;100.00;99779.52;109177;1254;61361;-80
2023/01/31 04:15:26;;;;;;;15.30;6.70;;;;;;;-3.13;100.00;99785.68;109216;1255;73580;-80
2023/01/31 04:18:16;;;;;;;16.10;6.60;;;;;;;-3.15;100.00;99788.48;109274;1258;69997;-80
2023/01/31 04:21:05;;;;;;;16.70;6.80;;;;;;;-3.18;100.00;99787.33;109276;1258;73629;-80
2023/01/31 04:23:54;;;;;;;17.00;7.50;;;;;;;-3.22;100.00;99788.30;109029;1254;62334;-80
2023/01/31 04:26:43;;;;;;;20.00;6.80;;;;;;;-3.22;100.00;99785.19;109052;1254;61182;-80
2023/01/31 04:29:32;;;;;;;20.20;6.40;;;;;;;-3.24;100.00;99787.90;109262;1253;74745;-80
2023/01/31 04:32:24;;;;;;;13.80;5.60;;;;;;;-3.26;100.00;99788.11;109115;1254;69243;-80
2023/01/31 04:35:13;;;;;;;16.60;6.30;;;;;;;-3.26;100.00;99787.79;109347;1253;72338;-80
2023/01/31 04:38:02;;;;;;;19.20;6.70;;;;;;;-3.26;100.00;99784.79;109326;1253;60826;-80
2023/01/31 04:40:53;;;;;;;14.90;6.50;;;;;;;-3.25;100.00;99791.23;109309;1253;61441;-80
2023/01/31 04:43:42;;;;;;;19.50;6.70;;;;;;;-3.26;100.00;99794.48;109117;1260;74841;-80
2023/01/31 04:46:30;;;;;;;15.60;7.50;;;;;;;-3.27;100.00;99799.36;109113;1254;70958;-80
2023/01/31 04:49:20;;;;;;;17.90;7.00;;;;;;;-3.28;100.00;99797.15;109289;1254;73600;-80
2023/01/31 04:52:09;;;;;;;16.00;6.80;;;;;;;-3.27;100.00;99802.21;109310;1253;62371;-80
2023/01/31 04:54:58;;;;;;;17.00;7.00;;;;;;;-3.28;100.00;99804.80;109324;1254;61048;-80
2023/01/31 04:57:47;;;;;;;15.20;6.10;;;;;;;-3.28;100.00;99815.05;109242;1258;75170;-80
2023/01/31 05:00:36;;;;;;;15.90;6.40;;;;;;;-3.29;100.00;99812.63;109273;1257;69777;-81
2023/01/31 05:03:25;;;;;;;15.50;6.40;;;;;;;-3.29;100.00;99814.17;109285;1253;72411;-81
2023/01/31 05:06:14;;;;;;;14.50;6.40;;;;;;;-3.28;100.00;99814.79;109186;1254;62369;-80
2023/01/31 05:09:03;;;;;;;17.00;5.90;;;;;;;-3.27;100.00;99816.88;109224;1254;60331;-80
2023/01/31 05:11:52;;;;;;;12.50;5.80;;;;;;;-3.30;100.00;99813.80;109263;1254;74908;-81
2023/01/31 05:14:41;;;;;;;18.60;6.50;;;;;;;-3.33;100.00;99813.76;109304;1254;68537;-81
2023/01/31 05:17:30;;;;;;;16.80;6.30;;;;;;;-3.35;100.00;99813.26;109227;1254;71707;-81
2023/01/31 05:20:19;;;;;;;16.90;6.90;;;;;;;-3.35;100.00;99816.88;109280;1254;61256;-80
2023/01/31 05:23:09;;;;;;;19.00;7.50;;;;;;;-3.39;100.00;99812.88;109310;1253;60099;-80
2023/01/31 05:25:58;;;;;;;17.00;7.00;;;;;;;-3.40;100.00;99818.06;109006;1254;72905;-80
2023/01/31 05:28:47;;;;;;;16.50;6.50;;;;;;;-3.41;100.00;99816.78;109138;1254;69706;-81
2023/01/31 05:31:36;;;;;;;20.50;7.50;;;;;;;-3.43;100.00;99816.42;109217;1254;73368;-80
2023/01/31 05:34:25;;;;;;;21.20;8.40;;;;;;;-3.43;100.00;99817.73;109208;1254;62355;-80
2023/01/31 05:37:14;;;;;;;17.70;6.70;;;;;;;-3.45;100.00;99815.52;109276;1254;61179;-80
2023/01/31 05:40:03;;;;;;;20.50;7.10;;;;;;;-3.46;100.00;99817.70;109221;1254;75702;-80
2023/01/31 05:42:56;;;;;;;20.40;7.30;;;;;;;-3.46;100.00;99822.86;109195;1254;68696;-80
2023/01/31 05:45:46;;;;;;;;;;;;;;;-3.44;100.00;99822.98;109287;1254;73536;-80
2023/01/31 05:48:35;;;;;;;17.50;6.90;;;;;;;-3.42;100.00;99827.02;109283;1254;58775;-81
2023/01/31 05:51:24;;;;;;;18.40;7.10;;;;;;;-3.40;100.00;99831.20;109246;1254;60316;-80
2023/01/31 05:54:13;;;;;;;16.20;6.50;;;;;;;-3.36;100.00;99835.36;109291;1254;74748;-79
2023/01/31 05:57:02;;;;;;;17.50;7.00;;;;;;;-3.33;100.00;99840.96;109200;1254;69701;-79
2023/01/31 05:59:50;;;;;;;16.90;7.20;;;;;;;-3.30;100.00;99837.81;109069;1254;73546;-79
2023/01/31 06:02:40;;;;;;;19.20;7.20;;;;;;;-3.26;100.00;99842.30;109307;1254;59332;-80
2023/01/31 06:05:30;;;;;;;18.70;7.50;;;;;;;-3.23;100.00;99844.67;109301;1254;61507;-79
2023/01/31 06:08:19;;;;;;;18.80;7.30;;;;;;;-3.21;100.00;99845.63;109308;1254;75089;-79
2023/01/31 06:11:09;;;;;;;18.90;6.90;;;;;;;-3.19;100.00;99844.55;109245;1254;69805;-79
2023/01/31 06:14:00;;;;;;;20.70;7.70;;;;;;;-3.15;100.00;99843.41;109266;1254;73480;-79
2023/01/31 06:16:49;;;;;;;19.20;7.90;;;;;;;-3.10;100.00;99851.27;109206;1253;59770;-79
2023/01/31 06:19:38;;;;;;;20.00;8.00;;;;;;;-3.06;100.00;99849.83;109158;1254;204987;-79
2023/01/31 06:22:27;;;;;;;17.70;7.90;;;;;;;-3.01;100.00;99853.49;109255;1254;73349;-80
2023/01/31 06:25:16;;;;;;;16.70;8.00;;;;;;;-2.98;100.00;99852.67;109225;1254;69604;-79
2023/01/31 06:28:06;;;;;;;21.60;8.10;;;;;;;-2.95;100.00;99857.65;109241;1253;73611;-80
2023/01/31 06:30:55;;;;;;;18.40;7.40;;;;;;;-2.91;100.00;99856.90;109265;1254;61596;-80
2023/01/31 06:33:44;;;;;;;19.20;8.50;;;;;;;-2.87;100.00;99858.84;109321;1254;61235;-79
2023/01/31 06:36:36;;;;;;;15.60;7.60;;;;;;;-2.82;100.00;99854.23;109258;1254;74769;-79
2023/01/31 06:39:25;;;;;;;21.00;8.20;;;;;;;-2.76;100.00;99855.38;109293;1254;69514;-79
2023/01/31 06:42:14;;;;;;;20.80;8.20;;;;;;;-2.72;100.00;99857.02;109270;1254;73208;-80
2023/01/31 06:45:03;;;;;;;17.00;6.40;;;;;;;-2.72;100.00;99853.33;109192;1254;60576;-80
2023/01/31 06:47:52;;;;;;;20.00;7.40;;;;;;;-2.71;100.00;99854.19;109281;1254;62473;-79
2023/01/31 06:50:41;;;;;;;19.10;7.80;;;;;;;-2.63;100.00;99857.97;109275;1257;74539;-80
2023/01/31 06:53:30;;;;;;;19.80;7.40;;;;;;;-2.56;100.00;99860.77;109262;1254;70115;-79
2023/01/31 06:56:19;;;;;;;21.50;9.30;;;;;;;-2.51;100.00;99859.79;109264;1254;73758;-79
2023/01/31 06:59:08;;;;;;;22.20;8.00;;;;;;;-2.47;100.00;99861.94;109187;1254;60725;-79
2023/01/31 07:01:57;;;;;;;17.20;7.40;;;;;;;-2.44;100.00;99866.09;109215;1254;61832;-79
2023/01/31 07:04:46;;;;;;;20.80;8.00;;;;;;;-2.40;100.00;99863.89;109291;1254;75061;-79
2023/01/31 07:07:38;;;;;;;19.70;8.10;;;;;;;-2.35;100.00;99864.01;109298;1254;68655;-80
2023/01/31 07:10:27;;;;;;;17.70;7.10;;;;;;;-2.31;100.00;99865.54;109269;1254;73648;-80
2023/01/31 07:13:15;;;;;;;19.80;8.20;;;;;;;-2.26;100.00;99870.16;109184;1254;62094;-80
2023/01/31 07:16:04;;;;;;;22.10;7.90;;;;;;;-2.20;100.00;99872.62;109158;1254;61031;-80
2023/01/31 07:18:54;;;;;;;18.40;7.90;;;;;;;-2.12;100.00;99874.30;109262;1254;73922;-80
2023/01/31 07:21:43;;;;;;;16.70;7.40;;;;;;;-2.04;100.00;99873.73;109249;1254;69968;-79
2023/01/31 07:24:32;;;;;;;20.80;8.60;;;;;;;-1.92;100.00;99872.25;109188;1254;73866;-79
2023/01/31 07:27:20;;;;;;;21.80;8.20;;;;;;;-1.80;100.00;99880.06;109258;1254;59579;-79
2023/01/31 07:30:10;;;;;;;22.70;9.10;;;;;;;-1.73;100.00;99877.94;109300;1253;61565;-79
2023/01/31 07:32:59;;;;;;;19.80;8.00;;;;;;;-1.64;100.00;99879.05;109276;1254;75683;-80
2023/01/31 07:35:47;;;;;;;20.80;8.10;;;;;;;-1.57;100.00;99878.96;109202;1254;68627;-80
2023/01/31 07:38:37;;;;;;;20.70;8.60;;;;;;;-1.47;100.00;99883.42;109285;1253;73277;-79
2023/01/31 07:41:25;;;;;;;21.10;8.00;;;;;;;-1.39;100.00;99883.58;109190;1254;60443;-79
2023/01/31 07:44:14;;;;;;;21.50;8.80;;;;;;;-1.32;100.00;99884.57;109283;1254;60208;-79
2023/01/31 07:47:03;;;;;;;20.00;8.00;;;;;;;-1.25;100.00;99882.92;109224;1253;74697;-79
2023/01/31 07:49:54;;;;;;;21.80;8.80;;;;;;;-1.17;100.00;99881.30;109139;1254;68819;-79
2023/01/31 07:52:43;;;;;;;23.30;8.60;;;;;;;-1.14;100.00;99885.37;109287;1254;73969;-80
2023/01/31 07:55:31;;;;;;;20.00;8.60;;;;;;;-1.13;100.00;99889.45;109246;1254;60523;-80
2023/01/31 07:58:20;;;;;;;21.50;9.40;;;;;;;-1.14;100.00;99892.96;109230;1253;59987;-80
2023/01/31 08:04:38;;;;;;;23.00;9.00;;;;;;;-1.09;100.00;99899.32;109212;1254;69645;-80
2023/01/31 08:07:27;;;;;;;20.80;9.00;;;;;;;-1.03;100.00;99901.10;109225;1254;73755;-80
2023/01/31 08:10:16;;;;;;;21.30;9.70;;;;;;;-0.99;100.00;99902.44;108876;1254;59106;-80
2023/01/31 08:13:06;;;;;;;22.10;10.10;;;;;;;-0.95;100.00;99907.73;109167;1254;61597;-80
2023/01/31 08:15:54;;;;;;;23.40;8.90;;;;;;;-0.88;100.00;99908.06;109131;1256;73784;-80
2023/01/31 08:18:44;;;;;;;20.30;8.90;;;;;;;-0.80;100.00;99904.86;109212;1254;68495;-80
2023/01/31 08:21:32;;;;;;;22.50;9.60;;;;;;;-0.76;100.00;99909.90;109187;1254;73614;-80
2023/01/31 08:24:22;;;;;;;23.90;9.10;;;;;;;-0.76;100.00;99907.63;109198;1254;60755;-80
2023/01/31 08:27:10;;;;;;;24.40;10.00;;;;;;;-0.75;100.00;99911.00;109176;1254;59167;-80
2023/01/31 08:29:59;;;;;;;21.90;9.70;;;;;;;-0.70;100.00;99915.13;109143;1255;74553;-80
2023/01/31 08:32:48;;;;;;;18.20;8.50;;;;;;;-0.66;100.00;99917.20;109148;1255;68085;-80
2023/01/31 08:35:37;;;;;;;24.50;10.00;;;;;;;-0.61;100.00;99916.27;109169;1254;73607;-80
2023/01/31 08:38:26;;;;;;;27.00;10.70;;;;;;;-0.54;100.00;99916.45;109194;1254;63295;-80
2023/01/31 08:41:16;;;;;;;26.90;9.80;;;;;;;-0.49;100.00;99919.58;109183;1254;61336;-80
2023/01/31 08:44:05;;;;;;;23.00;9.00;;;;;;;-0.44;100.00;99912.31;109180;1254;74675;-80
2023/01/31 08:46:54;;;;;;;19.00;8.90;;;;;;;-0.40;100.00;99917.20;109005;1254;68515;-80
2023/01/31 08:49:42;;;;;;;24.90;10.40;;;;;;;-0.38;100.00;99915.41;109192;1254;73842;-80
2023/01/31 08:52:34;;;;;;;20.70;9.60;;;;;;;-0.37;100.00;99908.77;109146;1254;60688;-80
2023/01/31 08:55:24;;;;;;;15.80;6.80;;;;;;;-0.36;100.00;99913.48;109182;1254;60278;-80
2023/01/31 08:58:12;;;;;;;20.60;8.70;;;;;;;-0.34;100.00;99917.85;108990;1254;75179;-80
2023/01/31 09:01:05;;;;;;;19.90;8.30;;;;;;;-0.31;100.00;99912.83;109064;1256;69399;-80
2023/01/31 09:03:55;;;;;;;24.10;9.10;;;;;;;-0.28;100.00;99916.34;109179;1254;73137;-80
2023/01/31 09:06:45;;;;;;;22.80;9.00;;;;;;;-0.24;100.00;99919.11;109161;1254;59435;-81
2023/01/31 09:09:34;;;;;;;19.60;8.50;;;;;;;-0.19;100.00;99922.28;109270;1253;60336;-81
2023/01/31 09:12:22;;;;;;;21.50;9.60;;;;;;;-0.15;100.00;99919.10;109259;1253;73804;-81
2023/01/31 09:15:12;;;;;;;21.40;9.80;;;;;;;-0.12;100.00;99918.33;109242;1254;70122;-81
2023/01/31 09:18:00;;;;;;;21.50;8.80;;;;;;;-0.11;100.00;99918.32;109057;1254;72334;-82
2023/01/31 09:20:49;;;;;;;21.60;9.10;;;;;;;-0.10;100.00;99924.00;109233;1253;60449;-82
2023/01/31 09:23:38;;;;;;;20.80;8.70;;;;;;;-0.12;100.00;99920.89;109225;1253;61551;-82
2023/01/31 09:26:30;;;;;;;;;;;;;;;-0.14;100.00;99921.90;109238;1253;73520;-82
2023/01/31 09:29:19;;;;;;;23.80;9.30;;;;;;;-0.15;100.00;99921.58;109270;1253;69636;-82
2023/01/31 09:32:08;;;;;;;21.90;8.30;;;;;;;-0.16;100.00;99917.88;109264;1253;73565;-82
2023/01/31 09:34:57;;;;;;;21.40;8.70;;;;;;;-0.13;100.00;99920.86;109194;1253;60683;-83
2023/01/31 09:37:46;;;;;;;20.50;9.20;;;;;;;-0.07;100.00;99923.86;109255;1252;60279;-83
2023/01/31 09:40:38;;;;;;;22.10;9.20;;;;;;;-0.03;100.00;99919.69;109214;1253;72870;-83
2023/01/31 09:43:31;;;;;;;22.10;10.00;;;;;;;-0.04;100.00;99925.15;109189;1253;67742;-83
2023/01/31 09:46:24;;;;;;;21.70;8.70;;;;;;;-0.03;100.00;99922.77;109163;1254;73909;-83
2023/01/31 09:49:21;;;;;;;26.30;10.40;;;;;;;0.01;100.00;99927.21;109205;1254;60680;-83
2023/01/31 09:52:10;;;;;;;23.70;10.10;;;;;;;0.07;100.00;99928.64;109229;1253;60922;-84
2023/01/31 09:54:59;;;;;;;18.50;8.80;;;;;;;0.11;100.00;99926.90;109202;1254;73528;-84
2023/01/31 09:57:54;;;;;;;22.90;9.60;;;;;;;0.12;100.00;99923.61;109291;1253;68780;-84
2023/01/31 10:00:53;;;;;;;22.20;9.20;;;;;;;0.16;100.00;99924.81;109182;1254;73841;-85
2023/01/31 12:10:41;;;;;;;27.00;10.20;;;;;;;-0.15;100.00;99909.94;105796;1291;600801;-85
2023/01/31 12:13:30;;;;;;;26.70;11.60;;;;;;;-0.20;100.00;99908.05;108475;1266;60221;-86
2023/01/31 12:16:21;;;;;;;32.50;12.30;;;;;;;-0.19;100.00;99908.95;108520;1266;60082;-86
2023/01/31 12:19:10;;;;;;;24.50;10.50;;;;;;;-0.17;100.00;99909.55;108314;1267;72855;-86
2023/01/31 12:22:14;;;;;;;28.50;11.20;;;;;;;-0.13;100.00;99911.36;108498;1267;70010;-87
2023/01/31 12:25:11;;;;;;;24.80;10.50;;;;;;;-0.04;100.00;99911.07;108235;1263;140398;-86
2023/01/31 12:28:36;;;;;;;29.10;12.10;;;;;;;0.11;100.00;99914.58;108662;1262;61408;-87
2023/01/31 12:31:37;;;;;;;26.70;10.00;;;;;;;0.22;100.00;99911.61;108671;1263;61571;-87
2023/01/31 12:34:51;;;;;;;25.50;10.30;;;;;;;0.25;100.00;99911.07;108843;1260;72240;-87
2023/01/31 12:38:25;;;;;;;26.70;11.30;;;;;;;0.34;100.00;99914.23;108808;1262;69896;-87
2023/01/31 12:41:35;;;;;;;22.90;10.10;;;;;;;0.40;100.00;99918.70;108789;1260;73673;-87
2023/01/31 12:44:39;;;;;;;26.00;10.20;;;;;;;0.44;100.00;99914.83;108830;1260;60586;-86
2023/01/31 12:47:54;;;;;;;22.60;9.40;;;;;;;0.44;100.00;99918.74;108883;1260;61338;-87
2023/01/31 12:50:51;;;;;;;24.60;10.10;;;;;;;0.49;100.00;99919.96;108673;1263;73130;-87
2023/01/31 12:53:49;;;;;;;27.00;11.20;;;;;;;0.53;100.00;99917.55;108807;1262;69697;-88
2023/01/31 12:56:45;;;;;;;22.90;10.50;;;;;;;0.55;100.00;99917.11;108710;1260;73645;-87
2023/01/31 12:59:43;;;;;;;22.90;10.20;;;;;;;0.56;100.00;99924.26;108701;1260;60835;-87
2023/01/31 13:02:38;;;;;;;26.50;12.40;;;;;;;0.57;100.00;99921.67;108764;1260;61646;-87
2023/01/31 13:05:33;;;;;;;24.10;10.90;;;;;;;0.60;100.00;99922.91;108739;1262;74208;-87
2023/01/31 13:08:27;;;;;;;26.00;11.20;;;;;;;0.67;100.00;99923.37;108729;1262;70086;-87
2023/01/31 13:11:29;;;;;;;25.70;10.80;;;;;;;0.67;100.00;99924.77;108721;1261;73672;-87
2023/01/31 13:14:23;;;;;;;21.70;8.20;;;;;;;0.68;100.00;99927.80;108794;1260;59265;-86
2023/01/31 13:17:13;;;;;;;24.70;10.90;;;;;;;0.65;100.00;99932.84;108804;1260;60408;-86
2023/01/31 13:20:30;;;;;;;29.60;12.30;;;;;;;0.65;100.00;99936.42;108735;1260;74230;-86
2023/01/31 13:23:23;;;;;;;22.80;9.60;;;;;;;0.68;100.00;99936.92;108824;1260;68861;-87
2023/01/31 13:26:20;;;;;;;24.80;10.50;;;;;;;0.67;100.00;99939.26;108802;1260;73685;-87
2023/01/31 13:29:13;;;;;;;26.70;10.60;;;;;;;0.63;100.00;99942.03;108655;1262;60423;-87
2023/01/31 13:32:37;;;;;;;27.30;11.60;;;;;;;0.64;100.00;99945.01;108585;1262;61701;-87
2023/01/31 13:35:31;;;;;;;27.30;11.20;;;;;;;0.64;100.00;99947.07;108879;1260;74646;-88
2023/01/31 13:38:20;;;;;;;23.40;10.10;;;;;;;0.62;100.00;99949.87;108693;1260;68875;-88
2023/01/31 13:41:32;;;;;;;24.70;11.20;;;;;;;0.60;100.00;99947.41;108746;1260;75696;-86
2023/01/31 13:44:20;;;;;;;24.50;10.80;;;;;;;0.59;100.00;99951.85;108634;1263;61115;-87
2023/01/31 13:47:17;;;;;;;25.00;11.10;;;;;;;0.60;100.00;99952.98;108837;1261;60319;-89
2023/01/31 13:50:17;;;;;;;24.20;10.40;;;;;;;0.58;100.00;99955.42;108941;1256;73960;-86
2023/01/31 13:53:11;;;;;;;26.60;10.90;;;;;;;0.55;100.00;99953.02;108847;1257;68234;-87
2023/01/31 13:56:00;;;;;;;26.80;10.00;;;;;;;0.53;100.00;99952.66;108811;1257;72907;-88
2023/01/31 13:58:49;;;;;;;25.10;10.10;;;;;;;0.54;100.00;99951.08;108919;1257;62210;-88
2023/01/31 14:01:47;;;;;;;29.40;12.10;;;;;;;0.54;100.00;99951.45;108877;1257;61004;-88
2023/01/31 14:04:36;;;;;;;26.80;10.30;;;;;;;0.54;100.00;99948.39;109035;1257;73066;-88
2023/01/31 14:07:28;;;;;;;29.80;11.10;;;;;;;0.57;100.00;99949.15;109100;1257;69137;-88
2023/01/31 14:10:17;;;;;;;22.70;9.70;;;;;;;0.55;100.00;99953.05;108926;1257;74356;-87
2023/01/31 14:13:26;;;;;;;24.90;10.90;;;;;;;0.54;100.00;99958.81;108926;1257;61849;-89
2023/01/31 14:16:30;;;;;;;21.80;10.00;;;;;;;0.52;100.00;99961.83;108976;1257;61605;-88
2023/01/31 14:19:22;;;;;;;25.90;11.60;;;;;;;0.52;100.00;99962.23;108994;1257;72962;-88
2023/01/31 14:22:12;;;;;;;;;;;;;;;0.47;100.00;99966.19;109038;1259;68828;-88
2023/01/31 14:25:09;;;;;;;29.10;11.20;;;;;;;0.44;100.00;99970.52;108943;1257;72348;-88
2023/01/31 14:28:00;;;;;;;24.80;10.90;;;;;;;0.46;100.00;99971.16;108989;1257;60486;-88
2023/01/31 14:30:49;;;;;;;28.20;11.30;;;;;;;0.45;100.00;99974.27;108920;1257;60805;-88
2023/01/31 14:33:38;;;;;;;23.90;10.50;;;;;;;0.43;100.00;99976.48;108946;1257;73891;-88
2023/01/31 14:36:32;;;;;;;27.50;11.20;;;;;;;0.41;100.00;99970.92;108985;1257;68782;-89
2023/01/31 14:39:49;;;;;;;26.90;11.10;;;;;;;0.40;100.00;99970.35;108925;1257;73874;-88
2023/01/31 14:43:09;;;;;;;24.40;10.40;;;;;;;0.40;100.00;99976.39;108992;1259;60782;-88
2023/01/31 14:46:21;;;;;;;29.60;12.00;;;;;;;0.39;100.00;99979.94;108955;1258;60021;-90
2023/01/31 14:49:31;;;;;;;24.30;11.70;;;;;;;0.35;100.00;99976.08;108825;1257;73048;-89
2023/01/31 14:53:04;;;;;;;27.50;11.90;;;;;;;0.35;100.00;99977.20;109390;1253;69510;-88
2023/01/31 14:56:08;;;;;;;29.30;12.80;;;;;;;0.40;100.00;99984.48;108957;1256;72603;-88
2023/01/31 14:58:57;;;;;;;25.40;11.30;;;;;;;0.36;100.00;99985.13;109233;1253;59161;-88
2023/01/31 15:01:45;;;;;;;26.80;11.50;;;;;;;0.33;100.00;99983.00;109344;1253;60070;-87
2023/01/31 15:04:34;;;;;;;31.00;13.40;;;;;;;0.27;100.00;99982.50;109385;1253;73047;-87
2023/01/31 15:07:23;;;;;;;38.90;15.40;;;;;;;0.27;100.00;99986.13;109225;1253;69025;-89
2023/01/31 15:10:51;;;;;;;33.50;14.40;;;;;;;0.22;100.00;99984.49;109299;1253;73703;-89
2023/01/31 15:13:43;;;;;;;29.90;14.00;;;;;;;0.19;100.00;99995.27;109272;1254;59787;-88
2023/01/31 15:16:32;;;;;;;49.40;20.20;;;;;;;0.17;100.00;99982.10;109317;1253;61494;-88
2023/01/31 15:19:23;;;;;;;31.30;13.30;;;;;;;0.16;100.00;99991.04;109133;1253;74024;-88